sensor_id;sensor_type;location;lat;lon;timestamp;P1;durP1;ratioP1;P2;durP2;ratioP2
14984;SDS011;7588;62.368;25.902;2023-09-19T00:01:42;0.75;;;0.00;;
14984;SDS011;7588;62.368;25.902;2023-09-19T00:04:11;0.30;;;0.00;;
14984;SDS011;7588;62.368;25.902;2023-09-19T00:06:37;0.77;;;0.00;;
14984;SDS011;7588;62.368;25.902;2023-09-19T00:09:03;0.32;;;0.00;;
14984;SDS011;7588;62.368;25.902;2023-09-19T00:11:28;0.63;;;0.00;;
14984;SDS011;7588;62.368;25.902;2023-09-19T00:13:54;0.52;;;0.00;;
14984;SDS011;7588;62.368;25.902;2023-09-19T00:16:20;0.30;;;0.00;;
14984;SDS011;7588;62.368;25.902;2023-09-19T00:18:45;0.13;;;0.00;;
14984;SDS011;7588;62.368;25.902;2023-09-19T00:21:11;0.25;;;0.00;;
14984;SDS011;7588;62.368;25.902;2023-09-19T00:23:36;0.20;;;0.00;;
14984;SDS011;7588;62.368;25.902;2023-09-19T00:26:02;1.48;;;0.00;;
14984;SDS011;7588;62.368;25.902;2023-09-19T00:28:28;0.38;;;0.00;;
14984;SDS011;7588;62.368;25.902;2023-09-19T00:30:56;0.13;;;0.03;;
14984;SDS011;7588;62.368;25.902;2023-09-19T00:33:22;0.70;;;0.00;;
14984;SDS011;7588;62.368;25.902;2023-09-19T00:35:48;0.77;;;0.10;;
14984;SDS011;7588;62.368;25.902;2023-09-19T00:38:14;1.48;;;0.00;;
14984;SDS011;7588;62.368;25.902;2023-09-19T00:40:45;0.85;;;0.00;;
14984;SDS011;7588;62.368;25.902;2023-09-19T00:43:10;1.25;;;0.00;;
14984;SDS011;7588;62.368;25.902;2023-09-19T00:45:36;0.30;;;0.00;;
14984;SDS011;7588;62.368;25.902;2023-09-19T00:48:07;0.30;;;0.00;;
14984;SDS011;7588;62.368;25.902;2023-09-19T00:50:34;0.30;;;0.00;;
14984;SDS011;7588;62.368;25.902;2023-09-19T00:53:00;1.65;;;0.30;;
14984;SDS011;7588;62.368;25.902;2023-09-19T00:55:26;0.10;;;0.00;;
14984;SDS011;7588;62.368;25.902;2023-09-19T00:57:55;0.50;;;0.00;;
14984;SDS011;7588;62.368;25.902;2023-09-19T01:00:21;0.20;;;0.00;;
14984;SDS011;7588;62.368;25.902;2023-09-19T01:02:48;0.38;;;0.10;;
14984;SDS011;7588;62.368;25.902;2023-09-19T01:05:13;0.40;;;0.10;;
14984;SDS011;7588;62.368;25.902;2023-09-19T01:07:39;0.22;;;0.00;;
14984;SDS011;7588;62.368;25.902;2023-09-19T01:10:10;4.47;;;0.10;;
14984;SDS011;7588;62.368;25.902;2023-09-19T01:28:34;0.43;;;0.00;;
14984;SDS011;7588;62.368;25.902;2023-09-19T01:31:09;0.17;;;0.00;;
14984;SDS011;7588;62.368;25.902;2023-09-19T01:33:57;2.95;;;0.03;;
14984;SDS011;7588;62.368;25.902;2023-09-19T01:36:24;0.75;;;0.08;;
14984;SDS011;7588;62.368;25.902;2023-09-19T01:38:50;0.85;;;0.00;;
14984;SDS011;7588;62.368;25.902;2023-09-19T01:41:17;0.43;;;0.10;;
14984;SDS011;7588;62.368;25.902;2023-09-19T01:43:47;0.20;;;0.00;;
14984;SDS011;7588;62.368;25.902;2023-09-19T01:46:21;0.45;;;0.00;;
14984;SDS011;7588;62.368;25.902;2023-09-19T01:51:56;0.50;;;0.00;;
14984;SDS011;7588;62.368;25.902;2023-09-19T01:54:30;0.40;;;0.10;;
14984;SDS011;7588;62.368;25.902;2023-09-19T01:57:04;1.05;;;0.00;;
14984;SDS011;7588;62.368;25.902;2023-09-19T01:59:45;0.40;;;0.15;;
14984;SDS011;7588;62.368;25.902;2023-09-19T02:02:16;0.57;;;0.00;;
14984;SDS011;7588;62.368;25.902;2023-09-19T02:04:42;0.22;;;0.00;;
14984;SDS011;7588;62.368;25.902;2023-09-19T02:07:08;0.40;;;0.00;;
14984;SDS011;7588;62.368;25.902;2023-09-19T02:09:34;0.57;;;0.20;;
14984;SDS011;7588;62.368;25.902;2023-09-19T02:12:00;0.28;;;0.00;;
14984;SDS011;7588;62.368;25.902;2023-09-19T02:14:27;0.30;;;0.00;;
14984;SDS011;7588;62.368;25.902;2023-09-19T02:16:54;0.20;;;0.00;;
14984;SDS011;7588;62.368;25.902;2023-09-19T02:19:20;1.05;;;0.10;;
14984;SDS011;7588;62.368;25.902;2023-09-19T02:21:46;0.30;;;0.00;;
14984;SDS011;7588;62.368;25.902;2023-09-19T02:24:13;0.43;;;0.00;;
14984;SDS011;7588;62.368;25.902;2023-09-19T02:26:40;0.95;;;0.00;;
14984;SDS011;7588;62.368;25.902;2023-09-19T02:29:06;0.32;;;0.00;;
14984;SDS011;7588;62.368;25.902;2023-09-19T02:31:31;0.50;;;0.10;;
14984;SDS011;7588;62.368;25.902;2023-09-19T02:33:56;0.20;;;0.00;;
14984;SDS011;7588;62.368;25.902;2023-09-19T02:36:22;0.40;;;0.00;;
14984;SDS011;7588;62.368;25.902;2023-09-19T02:38:48;0.82;;;0.00;;
14984;SDS011;7588;62.368;25.902;2023-09-19T02:41:14;0.82;;;0.10;;
14984;SDS011;7588;62.368;25.902;2023-09-19T02:43:39;0.43;;;0.00;;
14984;SDS011;7588;62.368;25.902;2023-09-19T02:46:05;1.27;;;0.00;;
14984;SDS011;7588;62.368;25.902;2023-09-19T02:48:30;0.30;;;0.00;;
14984;SDS011;7588;62.368;25.902;2023-09-19T02:50:57;1.05;;;0.00;;
14984;SDS011;7588;62.368;25.902;2023-09-19T02:53:22;0.40;;;0.03;;
14984;SDS011;7588;62.368;25.902;2023-09-19T02:55:49;0.30;;;0.00;;
14984;SDS011;7588;62.368;25.902;2023-09-19T02:58:14;0.55;;;0.10;;
14984;SDS011;7588;62.368;25.902;2023-09-19T03:00:40;0.60;;;0.10;;
14984;SDS011;7588;62.368;25.902;2023-09-19T03:03:07;0.98;;;0.00;;
14984;SDS011;7588;62.368;25.902;2023-09-19T03:05:33;0.60;;;0.00;;
14984;SDS011;7588;62.368;25.902;2023-09-19T03:07:59;0.47;;;0.00;;
14984;SDS011;7588;62.368;25.902;2023-09-19T03:10:26;1.58;;;0.10;;
14984;SDS011;7588;62.368;25.902;2023-09-19T03:12:52;0.63;;;0.10;;
14984;SDS011;7588;62.368;25.902;2023-09-19T03:15:18;0.90;;;0.10;;
14984;SDS011;7588;62.368;25.902;2023-09-19T03:17:44;0.35;;;0.03;;
14984;SDS011;7588;62.368;25.902;2023-09-19T03:20:10;0.70;;;0.20;;
14984;SDS011;7588;62.368;25.902;2023-09-19T03:22:38;1.25;;;0.10;;
14984;SDS011;7588;62.368;25.902;2023-09-19T03:25:05;0.60;;;0.03;;
14984;SDS011;7588;62.368;25.902;2023-09-19T03:27:33;1.20;;;0.00;;
14984;SDS011;7588;62.368;25.902;2023-09-19T03:29:59;1.27;;;0.10;;
14984;SDS011;7588;62.368;25.902;2023-09-19T03:32:25;0.90;;;0.10;;
14984;SDS011;7588;62.368;25.902;2023-09-19T03:34:51;0.75;;;0.10;;
14984;SDS011;7588;62.368;25.902;2023-09-19T03:37:16;1.35;;;0.40;;
14984;SDS011;7588;62.368;25.902;2023-09-19T03:39:42;1.98;;;0.25;;
14984;SDS011;7588;62.368;25.902;2023-09-19T03:42:07;1.13;;;0.40;;
14984;SDS011;7588;62.368;25.902;2023-09-19T03:44:33;1.13;;;0.25;;
14984;SDS011;7588;62.368;25.902;2023-09-19T03:46:58;0.60;;;0.15;;
14984;SDS011;7588;62.368;25.902;2023-09-19T03:49:24;1.73;;;0.40;;
14984;SDS011;7588;62.368;25.902;2023-09-19T03:51:49;1.02;;;0.30;;
14984;SDS011;7588;62.368;25.902;2023-09-19T03:54:15;0.93;;;0.20;;
14984;SDS011;7588;62.368;25.902;2023-09-19T03:56:42;0.90;;;0.32;;
14984;SDS011;7588;62.368;25.902;2023-09-19T03:59:08;1.17;;;0.40;;
14984;SDS011;7588;62.368;25.902;2023-09-19T04:01:34;1.08;;;0.20;;
14984;SDS011;7588;62.368;25.902;2023-09-19T04:04:00;0.93;;;0.30;;
14984;SDS011;7588;62.368;25.902;2023-09-19T04:06:33;1.10;;;0.50;;
14984;SDS011;7588;62.368;25.902;2023-09-19T04:09:00;0.80;;;0.22;;
14984;SDS011;7588;62.368;25.902;2023-09-19T04:11:26;1.63;;;0.50;;
14984;SDS011;7588;62.368;25.902;2023-09-19T04:13:51;1.80;;;0.65;;
14984;SDS011;7588;62.368;25.902;2023-09-19T04:16:16;1.05;;;0.38;;
14984;SDS011;7588;62.368;25.902;2023-09-19T04:18:42;1.40;;;0.60;;
14984;SDS011;7588;62.368;25.902;2023-09-19T04:21:08;1.95;;;0.40;;
14984;SDS011;7588;62.368;25.902;2023-09-19T04:23:34;1.88;;;0.35;;
14984;SDS011;7588;62.368;25.902;2023-09-19T04:25:59;2.15;;;0.60;;
14984;SDS011;7588;62.368;25.902;2023-09-19T04:28:25;0.93;;;0.30;;
14984;SDS011;7588;62.368;25.902;2023-09-19T04:30:52;1.00;;;0.38;;
14984;SDS011;7588;62.368;25.902;2023-09-19T04:33:18;1.20;;;0.47;;
14984;SDS011;7588;62.368;25.902;2023-09-19T04:35:43;1.27;;;0.40;;
14984;SDS011;7588;62.368;25.902;2023-09-19T04:38:09;1.92;;;0.35;;
14984;SDS011;7588;62.368;25.902;2023-09-19T04:40:34;1.30;;;0.30;;
14984;SDS011;7588;62.368;25.902;2023-09-19T04:43:00;1.33;;;0.47;;
14984;SDS011;7588;62.368;25.902;2023-09-19T04:45:26;0.93;;;0.45;;
14984;SDS011;7588;62.368;25.902;2023-09-19T04:47:53;1.08;;;0.50;;
14984;SDS011;7588;62.368;25.902;2023-09-19T04:50:19;1.08;;;0.40;;
14984;SDS011;7588;62.368;25.902;2023-09-19T04:52:46;1.55;;;0.40;;
14984;SDS011;7588;62.368;25.902;2023-09-19T04:55:16;2.10;;;0.85;;
14984;SDS011;7588;62.368;25.902;2023-09-19T04:57:45;1.63;;;0.30;;
14984;SDS011;7588;62.368;25.902;2023-09-19T05:00:12;1.10;;;0.30;;
14984;SDS011;7588;62.368;25.902;2023-09-19T05:02:40;0.88;;;0.20;;
14984;SDS011;7588;62.368;25.902;2023-09-19T05:05:06;0.90;;;0.20;;
14984;SDS011;7588;62.368;25.902;2023-09-19T05:07:33;1.08;;;0.50;;
14984;SDS011;7588;62.368;25.902;2023-09-19T05:09:59;1.30;;;0.40;;
14984;SDS011;7588;62.368;25.902;2023-09-19T05:12:25;1.77;;;0.65;;
14984;SDS011;7588;62.368;25.902;2023-09-19T05:14:51;1.20;;;0.43;;
14984;SDS011;7588;62.368;25.902;2023-09-19T05:17:17;1.10;;;0.40;;
14984;SDS011;7588;62.368;25.902;2023-09-19T05:19:42;1.20;;;0.47;;
14984;SDS011;7588;62.368;25.902;2023-09-19T05:22:08;1.48;;;0.63;;
14984;SDS011;7588;62.368;25.902;2023-09-19T05:24:33;1.20;;;0.60;;
14984;SDS011;7588;62.368;25.902;2023-09-19T05:26:58;2.53;;;0.68;;
14984;SDS011;7588;62.368;25.902;2023-09-19T05:29:24;1.42;;;0.60;;
14984;SDS011;7588;62.368;25.902;2023-09-19T05:31:50;1.55;;;0.50;;
14984;SDS011;7588;62.368;25.902;2023-09-19T05:34:16;1.20;;;0.40;;
14984;SDS011;7588;62.368;25.902;2023-09-19T05:36:41;0.95;;;0.43;;
14984;SDS011;7588;62.368;25.902;2023-09-19T05:39:07;2.28;;;0.38;;
14984;SDS011;7588;62.368;25.902;2023-09-19T05:41:35;1.48;;;0.30;;
14984;SDS011;7588;62.368;25.902;2023-09-19T05:44:02;2.05;;;0.30;;
14984;SDS011;7588;62.368;25.902;2023-09-19T05:46:28;1.13;;;0.57;;
14984;SDS011;7588;62.368;25.902;2023-09-19T05:48:54;2.33;;;0.98;;
14984;SDS011;7588;62.368;25.902;2023-09-19T05:51:22;1.02;;;0.15;;
14984;SDS011;7588;62.368;25.902;2023-09-19T05:53:47;1.88;;;0.10;;
14984;SDS011;7588;62.368;25.902;2023-09-19T05:56:13;1.35;;;0.32;;
14984;SDS011;7588;62.368;25.902;2023-09-19T05:58:40;2.70;;;0.40;;
14984;SDS011;7588;62.368;25.902;2023-09-19T06:01:08;0.75;;;0.38;;
14984;SDS011;7588;62.368;25.902;2023-09-19T06:03:34;0.57;;;0.10;;
14984;SDS011;7588;62.368;25.902;2023-09-19T06:06:01;1.05;;;0.40;;
14984;SDS011;7588;62.368;25.902;2023-09-19T06:08:26;1.33;;;0.25;;
14984;SDS011;7588;62.368;25.902;2023-09-19T06:10:53;0.52;;;0.20;;
14984;SDS011;7588;62.368;25.902;2023-09-19T06:13:19;0.70;;;0.20;;
14984;SDS011;7588;62.368;25.902;2023-09-19T06:15:45;0.60;;;0.20;;
14984;SDS011;7588;62.368;25.902;2023-09-19T06:18:12;1.88;;;0.30;;
14984;SDS011;7588;62.368;25.902;2023-09-19T06:20:44;1.73;;;0.55;;
14984;SDS011;7588;62.368;25.902;2023-09-19T06:23:14;0.70;;;0.13;;
14984;SDS011;7588;62.368;25.902;2023-09-19T06:25:39;0.68;;;0.20;;
14984;SDS011;7588;62.368;25.902;2023-09-19T06:28:06;1.00;;;0.30;;
14984;SDS011;7588;62.368;25.902;2023-09-19T06:30:33;1.05;;;0.45;;
14984;SDS011;7588;62.368;25.902;2023-09-19T06:32:59;0.90;;;0.25;;
14984;SDS011;7588;62.368;25.902;2023-09-19T06:35:25;1.48;;;0.20;;
14984;SDS011;7588;62.368;25.902;2023-09-19T06:37:51;1.27;;;0.32;;
14984;SDS011;7588;62.368;25.902;2023-09-19T06:40:17;0.70;;;0.20;;
14984;SDS011;7588;62.368;25.902;2023-09-19T06:42:44;0.90;;;0.13;;
14984;SDS011;7588;62.368;25.902;2023-09-19T06:45:11;0.73;;;0.20;;
14984;SDS011;7588;62.368;25.902;2023-09-19T06:47:39;1.08;;;0.30;;
14984;SDS011;7588;62.368;25.902;2023-09-19T06:50:05;0.73;;;0.32;;
14984;SDS011;7588;62.368;25.902;2023-09-19T06:52:31;0.80;;;0.20;;
14984;SDS011;7588;62.368;25.902;2023-09-19T06:54:58;0.80;;;0.30;;
14984;SDS011;7588;62.368;25.902;2023-09-19T06:57:23;0.30;;;0.00;;
14984;SDS011;7588;62.368;25.902;2023-09-19T06:59:49;0.90;;;0.20;;
14984;SDS011;7588;62.368;25.902;2023-09-19T07:02:15;0.80;;;0.20;;
14984;SDS011;7588;62.368;25.902;2023-09-19T07:04:40;0.68;;;0.17;;
14984;SDS011;7588;62.368;25.902;2023-09-19T07:07:06;0.60;;;0.20;;
14984;SDS011;7588;62.368;25.902;2023-09-19T07:09:34;1.13;;;0.10;;
14984;SDS011;7588;62.368;25.902;2023-09-19T07:11:59;0.80;;;0.10;;
14984;SDS011;7588;62.368;25.902;2023-09-19T07:14:25;0.70;;;0.20;;
14984;SDS011;7588;62.368;25.902;2023-09-19T07:16:51;0.70;;;0.10;;
14984;SDS011;7588;62.368;25.902;2023-09-19T07:19:17;0.30;;;0.00;;
14984;SDS011;7588;62.368;25.902;2023-09-19T07:21:42;0.30;;;0.00;;
14984;SDS011;7588;62.368;25.902;2023-09-19T07:24:08;0.82;;;0.20;;
14984;SDS011;7588;62.368;25.902;2023-09-19T07:26:33;0.40;;;0.20;;
14984;SDS011;7588;62.368;25.902;2023-09-19T07:28:59;0.65;;;0.32;;
14984;SDS011;7588;62.368;25.902;2023-09-19T07:31:25;1.25;;;0.10;;
14984;SDS011;7588;62.368;25.902;2023-09-19T07:33:52;0.75;;;0.10;;
14984;SDS011;7588;62.368;25.902;2023-09-19T07:36:18;0.35;;;0.00;;
14984;SDS011;7588;62.368;25.902;2023-09-19T07:38:44;1.17;;;0.65;;
14984;SDS011;7588;62.368;25.902;2023-09-19T07:41:09;0.40;;;0.00;;
14984;SDS011;7588;62.368;25.902;2023-09-19T07:43:35;1.15;;;0.10;;
14984;SDS011;7588;62.368;25.902;2023-09-19T07:46:04;0.63;;;0.20;;
14984;SDS011;7588;62.368;25.902;2023-09-19T07:48:32;0.60;;;0.10;;
14984;SDS011;7588;62.368;25.902;2023-09-19T07:51:01;0.60;;;0.03;;
14984;SDS011;7588;62.368;25.902;2023-09-19T07:53:28;0.50;;;0.10;;
14984;SDS011;7588;62.368;25.902;2023-09-19T07:56:01;0.40;;;0.13;;
14984;SDS011;7588;62.368;25.902;2023-09-19T07:58:27;0.50;;;0.00;;
14984;SDS011;7588;62.368;25.902;2023-09-19T08:00:52;0.63;;;0.10;;
14984;SDS011;7588;62.368;25.902;2023-09-19T08:03:17;0.40;;;0.20;;
14984;SDS011;7588;62.368;25.902;2023-09-19T08:05:43;0.77;;;0.20;;
14984;SDS011;7588;62.368;25.902;2023-09-19T08:08:10;1.05;;;0.65;;
14984;SDS011;7588;62.368;25.902;2023-09-19T08:10:39;2.55;;;1.85;;
14984;SDS011;7588;62.368;25.902;2023-09-19T08:13:07;1.85;;;1.38;;
14984;SDS011;7588;62.368;25.902;2023-09-19T08:15:36;2.65;;;2.45;;
14984;SDS011;7588;62.368;25.902;2023-09-19T08:18:09;1.10;;;0.82;;
14984;SDS011;7588;62.368;25.902;2023-09-19T08:20:37;0.65;;;0.40;;
14984;SDS011;7588;62.368;25.902;2023-09-19T08:23:03;0.80;;;0.10;;
14984;SDS011;7588;62.368;25.902;2023-09-19T08:25:28;0.68;;;0.20;;
14984;SDS011;7588;62.368;25.902;2023-09-19T08:27:54;0.40;;;0.10;;
14984;SDS011;7588;62.368;25.902;2023-09-19T08:30:23;1.75;;;0.30;;
14984;SDS011;7588;62.368;25.902;2023-09-19T08:32:49;1.38;;;0.40;;
14984;SDS011;7588;62.368;25.902;2023-09-19T08:35:15;1.42;;;0.20;;
14984;SDS011;7588;62.368;25.902;2023-09-19T08:37:41;2.00;;;0.10;;
14984;SDS011;7588;62.368;25.902;2023-09-19T08:40:08;2.55;;;0.95;;
14984;SDS011;7588;62.368;25.902;2023-09-19T08:42:55;0.73;;;0.15;;
14984;SDS011;7588;62.368;25.902;2023-09-19T08:45:20;0.40;;;0.10;;
14984;SDS011;7588;62.368;25.902;2023-09-19T08:51:01;0.82;;;0.10;;
14984;SDS011;7588;62.368;25.902;2023-09-19T08:53:41;1.88;;;0.13;;
14984;SDS011;7588;62.368;25.902;2023-09-19T08:56:08;1.80;;;0.20;;
14984;SDS011;7588;62.368;25.902;2023-09-19T08:58:39;0.63;;;0.13;;
14984;SDS011;7588;62.368;25.902;2023-09-19T09:01:08;0.40;;;0.10;;
14984;SDS011;7588;62.368;25.902;2023-09-19T09:03:35;1.58;;;0.20;;
14984;SDS011;7588;62.368;25.902;2023-09-19T09:06:02;0.98;;;0.15;;
14984;SDS011;7588;62.368;25.902;2023-09-19T09:08:27;0.73;;;0.17;;
14984;SDS011;7588;62.368;25.902;2023-09-19T09:10:56;0.60;;;0.10;;
14984;SDS011;7588;62.368;25.902;2023-09-19T09:13:22;2.40;;;1.08;;
14984;SDS011;7588;62.368;25.902;2023-09-19T09:15:51;1.20;;;0.20;;
14984;SDS011;7588;62.368;25.902;2023-09-19T09:18:16;1.67;;;0.73;;
14984;SDS011;7588;62.368;25.902;2023-09-19T09:20:43;3.58;;;1.55;;
14984;SDS011;7588;62.368;25.902;2023-09-19T09:23:09;0.68;;;0.20;;
14984;SDS011;7588;62.368;25.902;2023-09-19T09:28:20;0.75;;;0.15;;
14984;SDS011;7588;62.368;25.902;2023-09-19T09:30:47;2.25;;;1.20;;
14984;SDS011;7588;62.368;25.902;2023-09-19T09:33:13;2.10;;;0.90;;
14984;SDS011;7588;62.368;25.902;2023-09-19T09:35:59;1.00;;;0.30;;
14984;SDS011;7588;62.368;25.902;2023-09-19T09:38:27;1.13;;;0.30;;
14984;SDS011;7588;62.368;25.902;2023-09-19T09:41:13;2.22;;;0.20;;
14984;SDS011;7588;62.368;25.902;2023-09-19T09:43:52;0.90;;;0.28;;
14984;SDS011;7588;62.368;25.902;2023-09-19T09:46:18;1.70;;;1.00;;
14984;SDS011;7588;62.368;25.902;2023-09-19T09:48:48;2.25;;;1.58;;
14984;SDS011;7588;62.368;25.902;2023-09-19T09:54:58;2.75;;;0.70;;
14984;SDS011;7588;62.368;25.902;2023-09-19T09:57:33;1.38;;;0.43;;
14984;SDS011;7588;62.368;25.902;2023-09-19T09:59:59;1.80;;;0.45;;
14984;SDS011;7588;62.368;25.902;2023-09-19T10:02:35;1.40;;;0.43;;
14984;SDS011;7588;62.368;25.902;2023-09-19T10:05:12;2.45;;;0.40;;
14984;SDS011;7588;62.368;25.902;2023-09-19T10:07:52;0.98;;;0.40;;
14984;SDS011;7588;62.368;25.902;2023-09-19T10:10:37;1.00;;;0.28;;
14984;SDS011;7588;62.368;25.902;2023-09-19T10:13:24;1.48;;;0.40;;
14984;SDS011;7588;62.368;25.902;2023-09-19T10:15:52;1.88;;;0.60;;
14984;SDS011;7588;62.368;25.902;2023-09-19T10:18:20;1.65;;;0.35;;
14984;SDS011;7588;62.368;25.902;2023-09-19T10:20:47;1.15;;;0.40;;
14984;SDS011;7588;62.368;25.902;2023-09-19T10:23:14;1.38;;;0.70;;
14984;SDS011;7588;62.368;25.902;2023-09-19T10:25:40;1.50;;;0.40;;
14984;SDS011;7588;62.368;25.902;2023-09-19T10:28:07;1.52;;;0.60;;
14984;SDS011;7588;62.368;25.902;2023-09-19T10:33:12;2.03;;;0.40;;
14984;SDS011;7588;62.368;25.902;2023-09-19T10:35:41;1.77;;;0.60;;
14984;SDS011;7588;62.368;25.902;2023-09-19T10:38:12;2.03;;;0.52;;
14984;SDS011;7588;62.368;25.902;2023-09-19T10:40:39;1.45;;;0.55;;
14984;SDS011;7588;62.368;25.902;2023-09-19T10:43:16;1.83;;;0.60;;
14984;SDS011;7588;62.368;25.902;2023-09-19T10:45:46;1.55;;;0.80;;
14984;SDS011;7588;62.368;25.902;2023-09-19T10:48:14;1.77;;;0.65;;
14984;SDS011;7588;62.368;25.902;2023-09-19T10:53:08;1.83;;;1.05;;
14984;SDS011;7588;62.368;25.902;2023-09-19T10:55:36;1.98;;;1.10;;
14984;SDS011;7588;62.368;25.902;2023-09-19T10:58:01;2.10;;;0.73;;
14984;SDS011;7588;62.368;25.902;2023-09-19T11:00:49;2.30;;;1.17;;
14984;SDS011;7588;62.368;25.902;2023-09-19T11:03:16;2.00;;;0.90;;
14984;SDS011;7588;62.368;25.902;2023-09-19T11:30:40;1.77;;;0.85;;
14984;SDS011;7588;62.368;25.902;2023-09-19T11:46:17;3.60;;;1.05;;
14984;SDS011;7588;62.368;25.902;2023-09-19T11:48:47;2.72;;;1.00;;
14984;SDS011;7588;62.368;25.902;2023-09-19T11:51:14;2.85;;;1.00;;
14984;SDS011;7588;62.368;25.902;2023-09-19T11:53:44;3.42;;;1.50;;
14984;SDS011;7588;62.368;25.902;2023-09-19T11:56:21;2.13;;;1.45;;
14984;SDS011;7588;62.368;25.902;2023-09-19T11:58:56;2.92;;;1.25;;
14984;SDS011;7588;62.368;25.902;2023-09-19T12:01:32;1.98;;;1.05;;
14984;SDS011;7588;62.368;25.902;2023-09-19T12:03:59;2.53;;;1.27;;
14984;SDS011;7588;62.368;25.902;2023-09-19T12:06:25;2.03;;;1.23;;
14984;SDS011;7588;62.368;25.902;2023-09-19T12:08:52;2.90;;;1.23;;
14984;SDS011;7588;62.368;25.902;2023-09-19T12:11:19;2.83;;;1.40;;
14984;SDS011;7588;62.368;25.902;2023-09-19T12:13:48;2.70;;;1.50;;
14984;SDS011;7588;62.368;25.902;2023-09-19T12:16:14;2.00;;;1.15;;
14984;SDS011;7588;62.368;25.902;2023-09-19T12:18:41;3.90;;;1.45;;
14984;SDS011;7588;62.368;25.902;2023-09-19T12:21:31;4.53;;;1.92;;
14984;SDS011;7588;62.368;25.902;2023-09-19T12:24:22;2.65;;;1.85;;
14984;SDS011;7588;62.368;25.902;2023-09-19T12:26:47;4.20;;;1.67;;
14984;SDS011;7588;62.368;25.902;2023-09-19T12:29:21;3.03;;;1.05;;
14984;SDS011;7588;62.368;25.902;2023-09-19T12:31:47;2.35;;;1.33;;
14984;SDS011;7588;62.368;25.902;2023-09-19T12:34:22;4.38;;;1.17;;
14984;SDS011;7588;62.368;25.902;2023-09-19T12:40:03;3.30;;;1.67;;
14984;SDS011;7588;62.368;25.902;2023-09-19T12:42:47;3.05;;;2.45;;
14984;SDS011;7588;62.368;25.902;2023-09-19T12:45:13;2.75;;;1.38;;
14984;SDS011;7588;62.368;25.902;2023-09-19T12:47:40;3.30;;;1.95;;
14984;SDS011;7588;62.368;25.902;2023-09-19T12:55:24;2.72;;;1.73;;
14984;SDS011;7588;62.368;25.902;2023-09-19T12:57:56;4.40;;;2.47;;
14984;SDS011;7588;62.368;25.902;2023-09-19T13:00:37;2.33;;;1.60;;
14984;SDS011;7588;62.368;25.902;2023-09-19T13:05:57;3.97;;;2.10;;
14984;SDS011;7588;62.368;25.902;2023-09-19T13:08:30;4.45;;;2.70;;
14984;SDS011;7588;62.368;25.902;2023-09-19T13:11:16;4.30;;;2.35;;
14984;SDS011;7588;62.368;25.902;2023-09-19T13:19:34;4.88;;;2.40;;
14984;SDS011;7588;62.368;25.902;2023-09-19T13:22:03;4.13;;;2.22;;
14984;SDS011;7588;62.368;25.902;2023-09-19T13:24:28;3.75;;;2.35;;
14984;SDS011;7588;62.368;25.902;2023-09-19T13:26:55;4.30;;;2.08;;
14984;SDS011;7588;62.368;25.902;2023-09-19T13:29:21;3.15;;;2.35;;
14984;SDS011;7588;62.368;25.902;2023-09-19T13:31:47;3.67;;;2.08;;
14984;SDS011;7588;62.368;25.902;2023-09-19T13:34:14;5.55;;;2.67;;
14984;SDS011;7588;62.368;25.902;2023-09-19T13:36:41;3.65;;;2.13;;
14984;SDS011;7588;62.368;25.902;2023-09-19T13:39:07;5.13;;;2.35;;
14984;SDS011;7588;62.368;25.902;2023-09-19T13:41:34;4.55;;;2.63;;
14984;SDS011;7588;62.368;25.902;2023-09-19T13:44:02;4.20;;;2.55;;
14984;SDS011;7588;62.368;25.902;2023-09-19T13:46:28;4.65;;;2.65;;
14984;SDS011;7588;62.368;25.902;2023-09-19T13:48:53;3.45;;;2.38;;
14984;SDS011;7588;62.368;25.902;2023-09-19T13:51:20;4.18;;;2.90;;
14984;SDS011;7588;62.368;25.902;2023-09-19T13:53:48;4.78;;;2.45;;
14984;SDS011;7588;62.368;25.902;2023-09-19T13:56:14;4.50;;;2.47;;
14984;SDS011;7588;62.368;25.902;2023-09-19T13:58:39;3.55;;;2.28;;
14984;SDS011;7588;62.368;25.902;2023-09-19T14:01:06;7.03;;;2.28;;
14984;SDS011;7588;62.368;25.902;2023-09-19T14:03:37;14.77;;;2.75;;
14984;SDS011;7588;62.368;25.902;2023-09-19T14:06:03;4.90;;;2.58;;
14984;SDS011;7588;62.368;25.902;2023-09-19T14:08:29;5.00;;;2.97;;
14984;SDS011;7588;62.368;25.902;2023-09-19T14:10:54;4.60;;;2.30;;
14984;SDS011;7588;62.368;25.902;2023-09-19T14:13:19;4.65;;;2.83;;
14984;SDS011;7588;62.368;25.902;2023-09-19T14:15:45;4.50;;;2.67;;
14984;SDS011;7588;62.368;25.902;2023-09-19T14:18:11;4.03;;;2.55;;
14984;SDS011;7588;62.368;25.902;2023-09-19T14:20:39;5.22;;;3.10;;
14984;SDS011;7588;62.368;25.902;2023-09-19T14:23:06;6.53;;;4.28;;
14984;SDS011;7588;62.368;25.902;2023-09-19T14:25:33;6.30;;;3.63;;
14984;SDS011;7588;62.368;25.902;2023-09-19T14:27:59;8.00;;;5.60;;
14984;SDS011;7588;62.368;25.902;2023-09-19T14:30:25;7.75;;;5.68;;
14984;SDS011;7588;62.368;25.902;2023-09-19T14:32:51;5.75;;;4.38;;
14984;SDS011;7588;62.368;25.902;2023-09-19T14:35:16;6.40;;;4.53;;
14984;SDS011;7588;62.368;25.902;2023-09-19T14:37:42;5.70;;;3.88;;
14984;SDS011;7588;62.368;25.902;2023-09-19T14:40:08;6.82;;;3.58;;
14984;SDS011;7588;62.368;25.902;2023-09-19T14:42:35;6.20;;;3.17;;
14984;SDS011;7588;62.368;25.902;2023-09-19T14:45:03;4.45;;;3.13;;
14984;SDS011;7588;62.368;25.902;2023-09-19T14:47:30;5.03;;;2.90;;
14984;SDS011;7588;62.368;25.902;2023-09-19T14:49:57;5.05;;;2.97;;
14984;SDS011;7588;62.368;25.902;2023-09-19T14:52:23;4.25;;;2.55;;
14984;SDS011;7588;62.368;25.902;2023-09-19T14:54:51;5.18;;;3.25;;
14984;SDS011;7588;62.368;25.902;2023-09-19T14:57:16;4.65;;;3.15;;
14984;SDS011;7588;62.368;25.902;2023-09-19T14:59:42;4.85;;;3.15;;
14984;SDS011;7588;62.368;25.902;2023-09-19T15:02:07;5.30;;;3.25;;
14984;SDS011;7588;62.368;25.902;2023-09-19T15:04:33;4.85;;;3.15;;
14984;SDS011;7588;62.368;25.902;2023-09-19T15:06:58;4.70;;;3.40;;
14984;SDS011;7588;62.368;25.902;2023-09-19T15:09:24;6.50;;;3.25;;
14984;SDS011;7588;62.368;25.902;2023-09-19T15:11:54;4.35;;;3.15;;
14984;SDS011;7588;62.368;25.902;2023-09-19T15:14:20;5.55;;;3.80;;
14984;SDS011;7588;62.368;25.902;2023-09-19T15:16:47;5.63;;;3.70;;
14984;SDS011;7588;62.368;25.902;2023-09-19T15:19:13;6.10;;;2.97;;
14984;SDS011;7588;62.368;25.902;2023-09-19T15:21:39;6.68;;;3.38;;
14984;SDS011;7588;62.368;25.902;2023-09-19T15:24:05;5.43;;;4.10;;
14984;SDS011;7588;62.368;25.902;2023-09-19T15:26:34;7.25;;;4.20;;
14984;SDS011;7588;62.368;25.902;2023-09-19T15:29:04;5.68;;;3.67;;
14984;SDS011;7588;62.368;25.902;2023-09-19T15:31:30;6.90;;;4.05;;
14984;SDS011;7588;62.368;25.902;2023-09-19T15:33:55;6.68;;;4.15;;
14984;SDS011;7588;62.368;25.902;2023-09-19T15:36:21;8.52;;;4.10;;
14984;SDS011;7588;62.368;25.902;2023-09-19T15:39:05;5.53;;;3.95;;
14984;SDS011;7588;62.368;25.902;2023-09-19T15:41:36;6.35;;;3.92;;
14984;SDS011;7588;62.368;25.902;2023-09-19T15:44:13;7.50;;;5.00;;
14984;SDS011;7588;62.368;25.902;2023-09-19T15:46:40;7.18;;;4.50;;
14984;SDS011;7588;62.368;25.902;2023-09-19T15:49:06;6.30;;;4.60;;
14984;SDS011;7588;62.368;25.902;2023-09-19T15:51:32;5.78;;;4.05;;
14984;SDS011;7588;62.368;25.902;2023-09-19T15:53:58;7.30;;;4.82;;
14984;SDS011;7588;62.368;25.902;2023-09-19T15:56:25;7.38;;;5.07;;
14984;SDS011;7588;62.368;25.902;2023-09-19T15:58:52;9.57;;;5.43;;
14984;SDS011;7588;62.368;25.902;2023-09-19T16:01:19;11.57;;;4.85;;
14984;SDS011;7588;62.368;25.902;2023-09-19T16:03:49;7.43;;;5.13;;
14984;SDS011;7588;62.368;25.902;2023-09-19T16:06:19;7.80;;;4.93;;
14984;SDS011;7588;62.368;25.902;2023-09-19T16:08:46;7.78;;;5.07;;
14984;SDS011;7588;62.368;25.902;2023-09-19T16:11:13;7.00;;;4.97;;
14984;SDS011;7588;62.368;25.902;2023-09-19T16:13:40;10.50;;;5.40;;
14984;SDS011;7588;62.368;25.902;2023-09-19T16:16:07;8.80;;;5.45;;
14984;SDS011;7588;62.368;25.902;2023-09-19T16:18:33;10.38;;;5.38;;
14984;SDS011;7588;62.368;25.902;2023-09-19T16:21:02;7.28;;;5.00;;